createdAt,value
2018-09-11T00:00:21.849Z,5.50
2018-09-11T00:01:21.878Z,4.90
2018-09-11T00:02:21.910Z,5.50
2018-09-11T00:03:21.939Z,5.60
2018-09-11T00:04:21.968Z,5.80
2018-09-11T00:05:21.997Z,5.00
2018-09-11T00:06:22.026Z,5.40
2018-09-11T00:07:22.057Z,5.50
2018-09-11T00:08:22.080Z,5.00
2018-09-11T00:09:22.114Z,5.60
2018-09-11T00:10:22.140Z,5.50
2018-09-11T00:11:22.220Z,5.20
2018-09-11T00:12:22.201Z,5.40
2018-09-11T00:13:22.228Z,5.10
2018-09-11T00:14:22.259Z,5.40
2018-09-11T00:15:22.288Z,5.40
2018-09-11T00:16:22.307Z,5.00
2018-09-11T00:17:22.346Z,5.20
2018-09-11T00:18:22.366Z,5.20
2018-09-11T00:19:22.403Z,5.80
2018-09-11T00:20:22.430Z,5.10
2018-09-11T00:21:22.461Z,5.50
2018-09-11T00:22:22.490Z,5.60
2018-09-11T00:23:22.519Z,5.50
2018-09-11T00:24:22.545Z,5.50
2018-09-11T00:25:22.581Z,4.60
2018-09-11T00:26:22.609Z,5.20
2018-09-11T00:27:22.635Z,5.40
2018-09-11T00:28:22.664Z,5.30
2018-09-11T00:29:22.692Z,5.10
2018-09-11T00:30:22.720Z,5.80
2018-09-11T00:31:22.749Z,4.80
2018-09-11T00:32:22.781Z,5.40
2018-09-11T00:33:22.806Z,5.40
2018-09-11T00:34:22.835Z,5.10
2018-09-11T00:35:22.864Z,5.50
2018-09-11T00:36:22.893Z,4.90
2018-09-11T00:37:22.919Z,5.60
2018-09-11T00:38:22.945Z,4.90
2018-09-11T00:39:22.980Z,5.20
2018-09-11T00:40:23.006Z,5.40
2018-09-11T00:41:23.035Z,5.30
2018-09-11T00:42:23.067Z,5.10
2018-09-11T00:43:23.096Z,5.10
2018-09-11T00:44:23.124Z,5.10
2018-09-11T00:45:23.152Z,5.00
2018-09-11T00:46:23.184Z,5.20
2018-09-11T00:47:23.201Z,5.00
2018-09-11T00:48:23.239Z,5.00
2018-09-11T00:49:23.271Z,5.40
2018-09-11T00:50:23.297Z,4.80
2018-09-11T00:51:23.326Z,5.10
2018-09-11T00:52:23.353Z,5.00
2018-09-11T00:53:23.382Z,4.30
2018-09-11T00:54:23.414Z,4.50
2018-09-11T00:55:23.442Z,4.70
2018-09-11T00:56:23.468Z,4.30
2018-09-11T00:57:23.497Z,4.60
2018-09-11T00:58:23.516Z,4.80
2018-09-11T00:59:23.558Z,4.70
2018-09-11T01:00:23.587Z,4.50
2018-09-11T01:01:23.612Z,4.50
2018-09-11T01:02:23.640Z,4.80
2018-09-11T01:03:23.670Z,4.10
2018-09-11T01:04:23.698Z,4.70
2018-09-11T01:05:23.730Z,4.30
2018-09-11T01:06:23.756Z,4.20
2018-09-11T01:07:23.793Z,4.70
2018-09-11T01:08:23.816Z,4.50
2018-09-11T01:09:23.841Z,4.30
2018-09-11T01:10:23.868Z,4.00
2018-09-11T01:11:23.893Z,4.20
2018-09-11T01:12:23.924Z,4.20
2018-09-11T01:13:23.960Z,4.30
2018-09-11T01:14:23.988Z,4.40
2018-09-11T01:15:24.010Z,4.80
2018-09-11T01:16:24.039Z,4.50
2018-09-11T01:17:24.071Z,4.40
2018-09-11T01:18:24.105Z,4.20
2018-09-11T01:19:24.124Z,4.60
2018-09-11T01:20:24.153Z,4.50
2018-09-11T01:21:24.189Z,4.10
2018-09-11T01:22:24.216Z,4.20
2018-09-11T01:23:24.243Z,4.10
2018-09-11T01:24:24.275Z,4.00
2018-09-11T01:25:24.303Z,4.00
2018-09-11T01:26:24.329Z,4.20
2018-09-11T01:27:24.358Z,4.30
2018-09-11T01:28:24.386Z,4.10
2018-09-11T01:29:24.407Z,3.90
2018-09-11T01:30:24.444Z,3.80
2018-09-11T01:31:24.474Z,4.20
2018-09-11T01:32:24.499Z,3.80
2018-09-11T01:33:24.537Z,4.00
2018-09-11T01:34:24.557Z,4.30
2018-09-11T01:35:24.588Z,4.10
2018-09-11T01:36:24.614Z,4.00
2018-09-11T01:37:24.640Z,3.80
2018-09-11T01:38:24.676Z,3.50
2018-09-11T01:39:24.701Z,3.70
2018-09-11T01:40:24.734Z,3.90
2018-09-11T01:41:24.766Z,3.80
2018-09-11T01:42:24.788Z,4.10
2018-09-11T01:43:24.817Z,4.10
2018-09-11T01:44:24.849Z,3.50
2018-09-11T01:45:24.876Z,3.70
2018-09-11T01:46:24.905Z,3.70
2018-09-11T01:47:24.933Z,3.70
2018-09-11T01:48:24.962Z,3.80
2018-09-11T01:49:24.982Z,3.60
2018-09-11T01:50:25.023Z,3.90
2018-09-11T01:51:25.049Z,3.80
2018-09-11T01:52:25.077Z,3.30
2018-09-11T01:53:25.103Z,3.70
2018-09-11T01:54:25.137Z,3.70
2018-09-11T01:55:25.168Z,3.90
2018-09-11T01:56:25.193Z,3.50
2018-09-11T01:57:25.227Z,3.60
2018-09-11T01:58:25.250Z,3.80
2018-09-11T01:59:25.281Z,4.00
2018-09-11T02:00:25.306Z,3.40
2018-09-11T02:01:25.339Z,3.60
2018-09-11T02:02:25.372Z,3.60
2018-09-11T02:03:25.397Z,3.50
2018-09-11T02:04:25.429Z,3.80
2018-09-11T02:05:25.452Z,3.30
2018-09-11T02:06:25.481Z,3.40
2018-09-11T02:07:25.513Z,3.40
2018-09-11T02:08:25.537Z,3.50
2018-09-11T02:09:25.567Z,3.40
2018-09-11T02:10:25.595Z,3.60
2018-09-11T02:11:25.630Z,3.30
2018-09-11T02:12:25.657Z,3.40
2018-09-11T02:13:25.681Z,3.40
2018-09-11T02:14:25.708Z,3.60
2018-09-11T02:15:25.734Z,3.80
2018-09-11T02:16:25.773Z,3.90
2018-09-11T02:17:25.799Z,3.70
2018-09-11T02:18:25.833Z,3.50
2018-09-11T02:19:25.863Z,3.70
2018-09-11T02:20:25.890Z,3.50
2018-09-11T02:21:25.914Z,3.50
2018-09-11T02:22:25.949Z,3.50
2018-09-11T02:23:25.981Z,3.50
2018-09-11T02:24:26.002Z,3.50
2018-09-11T02:25:26.029Z,3.40
2018-09-11T02:26:26.061Z,3.40
2018-09-11T02:27:26.093Z,3.40
2018-09-11T02:28:26.122Z,3.40
2018-09-11T02:29:26.146Z,3.60
2018-09-11T02:30:26.184Z,3.50
2018-09-11T02:31:26.204Z,3.00
2018-09-11T02:32:26.233Z,3.20
2018-09-11T02:33:26.258Z,3.60
2018-09-11T02:34:26.292Z,3.40
2018-09-11T02:35:26.320Z,3.20
2018-09-11T02:36:26.354Z,3.10
2018-09-11T02:37:26.380Z,3.00
2018-09-11T02:38:26.406Z,3.30
2018-09-11T02:39:26.438Z,3.60
2018-09-11T02:40:26.463Z,3.40
2018-09-11T02:41:26.495Z,3.50
2018-09-11T02:42:26.526Z,3.10
2018-09-11T02:43:26.554Z,3.20
2018-09-11T02:44:26.580Z,3.40
2018-09-11T02:45:26.606Z,3.40
2018-09-11T02:46:26.637Z,3.30
2018-09-11T02:47:26.667Z,3.10
2018-09-11T02:48:26.695Z,3.30
2018-09-11T02:49:26.717Z,3.30
2018-09-11T02:50:26.756Z,3.50
2018-09-11T02:51:26.781Z,3.30
2018-09-11T02:52:26.811Z,3.60
2018-09-11T02:53:26.839Z,3.70
2018-09-11T02:54:26.871Z,3.50
2018-09-11T02:55:26.900Z,3.60
2018-09-11T02:56:26.929Z,3.90
2018-09-11T02:57:26.959Z,3.50
2018-09-11T02:58:26.991Z,3.30
2018-09-11T02:59:27.028Z,3.90
2018-09-11T03:00:27.044Z,3.70
2018-09-11T03:01:27.069Z,3.40
2018-09-11T03:02:27.102Z,3.70
2018-09-11T03:03:27.128Z,3.80
2018-09-11T03:04:27.159Z,3.60
2018-09-11T03:05:27.192Z,3.60
2018-09-11T03:06:27.240Z,3.90
2018-09-11T03:07:27.249Z,3.60
2018-09-11T03:08:27.276Z,3.60
2018-09-11T03:09:27.306Z,3.60
2018-09-11T03:11:27.362Z,4.00
2018-09-11T03:12:27.391Z,3.40
2018-09-11T03:13:27.421Z,3.80
2018-09-11T03:14:27.446Z,4.50
2018-09-11T03:15:27.478Z,3.70
2018-09-11T03:16:27.509Z,4.30
2018-09-11T03:17:27.538Z,4.00
2018-09-11T03:18:27.566Z,4.10
2018-09-11T03:19:27.598Z,3.40
2018-09-11T03:20:27.625Z,4.20
2018-09-11T03:21:27.652Z,3.90
2018-09-11T03:22:27.681Z,3.90
2018-09-11T03:23:27.776Z,3.70
2018-09-11T03:24:27.733Z,4.00
2018-09-11T03:25:27.775Z,3.70
2018-09-11T03:26:27.795Z,3.80
2018-09-11T03:27:27.826Z,3.70
2018-09-11T03:28:27.850Z,3.80
2018-09-11T03:29:27.877Z,3.70
2018-09-11T03:30:27.910Z,3.90
2018-09-11T03:31:27.941Z,3.70
2018-09-11T03:32:27.970Z,3.70
2018-09-11T03:33:27.999Z,3.50
2018-09-11T03:34:28.027Z,3.60
2018-09-11T03:35:28.055Z,3.90
2018-09-11T03:36:28.088Z,3.60
2018-09-11T03:37:28.114Z,3.40
2018-09-11T03:38:28.144Z,3.90
2018-09-11T03:39:28.170Z,3.90
2018-09-11T03:40:28.204Z,3.60
2018-09-11T03:41:28.231Z,3.80
2018-09-11T03:42:28.261Z,4.00
2018-09-11T03:43:28.288Z,3.70
2018-09-11T03:44:28.317Z,3.90
2018-09-11T03:45:28.342Z,3.80
2018-09-11T03:46:28.371Z,3.60
2018-09-11T03:47:28.403Z,3.70
2018-09-11T03:48:28.433Z,3.60
2018-09-11T03:49:28.458Z,3.70
2018-09-11T03:50:28.489Z,3.50
2018-09-11T03:51:28.519Z,3.70
2018-09-11T03:52:28.547Z,3.90
2018-09-11T03:53:28.576Z,3.90
2018-09-11T03:54:28.639Z,4.00
2018-09-11T03:55:28.637Z,3.80
2018-09-11T03:56:28.662Z,4.00
2018-09-11T03:57:28.691Z,3.80
2018-09-11T03:58:28.723Z,4.30
2018-09-11T03:59:28.745Z,3.70
2018-09-11T04:00:28.773Z,3.90
2018-09-11T04:01:28.811Z,3.60
2018-09-11T04:02:30.928Z,4.00
2018-09-11T04:04:28.894Z,4.00
2018-09-11T04:05:28.955Z,3.90
2018-09-11T04:06:28.956Z,3.60
2018-09-11T04:07:28.980Z,4.00
2018-09-11T04:08:29.014Z,3.80
2018-09-11T04:09:29.041Z,3.80
2018-09-11T04:10:29.066Z,3.50
2018-09-11T04:11:29.092Z,3.90
2018-09-11T04:12:29.120Z,3.60
2018-09-11T04:13:29.153Z,3.60
2018-09-11T04:14:29.178Z,3.60
2018-09-11T04:15:29.210Z,3.70
2018-09-11T04:16:29.246Z,3.70
2018-09-11T04:17:29.274Z,3.80
2018-09-11T04:18:29.296Z,3.60
2018-09-11T04:19:29.326Z,3.90
2018-09-11T04:20:29.357Z,3.60
2018-09-11T04:21:29.384Z,3.80
2018-09-11T04:22:29.431Z,3.80
2018-09-11T04:23:29.444Z,3.70
2018-09-11T04:24:29.470Z,4.00
2018-09-11T04:25:29.541Z,3.70
2018-09-11T04:26:32.437Z,3.40
2018-09-11T04:27:34.940Z,3.30
2018-09-11T04:28:41.432Z,3.70
2018-09-11T04:29:29.612Z,3.60
2018-09-11T04:30:29.650Z,3.40
2018-09-11T04:31:29.672Z,3.70
2018-09-11T04:32:29.697Z,3.60
2018-09-11T04:33:29.727Z,3.40
2018-09-11T04:34:29.763Z,3.60
2018-09-11T04:35:29.792Z,3.90
2018-09-11T04:36:29.862Z,3.60
2018-09-11T04:37:29.843Z,3.30
2018-09-11T04:38:29.862Z,3.50
2018-09-11T04:39:29.901Z,3.40
2018-09-11T04:40:29.924Z,3.60
2018-09-11T04:41:29.974Z,3.30
2018-09-11T04:42:30.001Z,3.70
2018-09-11T04:43:30.022Z,3.50
2018-09-11T04:44:30.040Z,3.50
2018-09-11T04:45:30.072Z,3.60
2018-09-11T04:46:30.105Z,3.50
2018-09-11T04:47:30.136Z,3.80
2018-09-11T04:48:30.181Z,3.90
2018-09-11T04:49:30.185Z,3.80
2018-09-11T04:50:30.217Z,4.10
2018-09-11T04:51:30.253Z,4.00
2018-09-11T04:52:30.276Z,4.00
2018-09-11T04:53:30.303Z,3.80
2018-09-11T04:54:30.331Z,3.90
2018-09-11T04:55:30.360Z,4.00
2018-09-11T04:56:30.386Z,3.70
2018-09-11T04:57:30.417Z,3.80
2018-09-11T04:58:30.443Z,3.80
2018-09-11T04:59:30.479Z,3.90
2018-09-11T05:00:30.504Z,3.90
2018-09-11T05:01:30.533Z,3.60
2018-09-11T05:02:30.557Z,3.90
2018-09-11T05:03:30.594Z,3.70
2018-09-11T05:04:30.609Z,3.40
2018-09-11T05:05:30.650Z,3.50
2018-09-11T05:06:30.675Z,3.70
2018-09-11T05:07:30.704Z,3.30
2018-09-11T05:08:30.724Z,3.90
2018-09-11T05:09:30.762Z,3.70
2018-09-11T05:10:30.797Z,3.50
2018-09-11T05:11:30.819Z,3.60
2018-09-11T05:12:30.857Z,3.70
2018-09-11T05:13:30.873Z,3.60
2018-09-11T05:14:30.906Z,4.10
2018-09-11T05:15:30.937Z,3.70
2018-09-11T05:16:30.960Z,3.90
2018-09-11T05:17:30.989Z,3.60
2018-09-11T05:18:31.069Z,3.60
2018-09-11T05:20:31.085Z,3.70
2018-09-11T05:21:31.111Z,3.60
2018-09-11T05:22:31.129Z,3.70
2018-09-11T05:23:31.173Z,3.70
2018-09-11T05:24:31.192Z,3.90
2018-09-11T05:25:31.221Z,3.60
2018-09-11T05:26:31.241Z,3.60
2018-09-11T05:27:31.358Z,3.50
2018-09-11T05:28:31.301Z,3.20
2018-09-11T05:29:31.364Z,3.70
2018-09-11T05:30:31.361Z,3.30
2018-09-11T05:31:31.389Z,3.30
2018-09-11T05:32:31.415Z,3.50
2018-09-11T05:33:31.447Z,3.60
2018-09-11T05:34:31.476Z,3.40
2018-09-11T05:35:31.502Z,3.40
2018-09-11T05:36:31.531Z,3.20
2018-09-11T05:37:31.569Z,3.50
2018-09-11T05:38:31.593Z,3.20
2018-09-11T05:39:31.621Z,3.70
2018-09-11T05:40:31.652Z,3.40
2018-09-11T05:41:31.678Z,3.50
2018-09-11T05:42:31.707Z,3.40
2018-09-11T05:43:31.736Z,3.50
2018-09-11T05:44:31.764Z,3.90
2018-09-11T05:45:31.792Z,3.40
2018-09-11T05:46:31.828Z,3.60
2018-09-11T05:47:31.851Z,3.70
2018-09-11T05:48:31.877Z,3.70
2018-09-11T05:49:31.909Z,3.30
2018-09-11T05:50:31.977Z,3.50
2018-09-11T05:51:31.967Z,3.50
2018-09-11T05:52:31.989Z,3.60
2018-09-11T05:53:32.021Z,3.50
2018-09-11T05:54:32.050Z,3.70
2018-09-11T05:55:32.076Z,3.40
2018-09-11T05:56:32.109Z,3.40
2018-09-11T05:57:32.139Z,3.20
2018-09-11T05:58:32.213Z,3.30
2018-09-11T05:59:32.195Z,3.10
2018-09-11T06:00:32.227Z,3.40
2018-09-11T06:01:32.249Z,3.40
2018-09-11T06:02:32.282Z,3.40
2018-09-11T06:03:32.317Z,3.40
2018-09-11T06:04:32.338Z,3.10
2018-09-11T06:05:32.423Z,3.30
2018-09-11T06:06:32.395Z,3.30
2018-09-11T06:07:32.420Z,3.20
2018-09-11T06:08:32.449Z,3.50
2018-09-11T06:09:32.488Z,3.20
2018-09-11T06:10:32.514Z,3.40
2018-09-11T06:11:32.537Z,4.10
2018-09-11T06:12:32.566Z,3.50
2018-09-11T06:13:32.595Z,3.40
2018-09-11T06:14:32.627Z,3.40
2018-09-11T06:15:32.655Z,3.10
2018-09-11T06:17:32.713Z,3.30
2018-09-11T06:18:32.741Z,3.20
2018-09-11T06:19:32.763Z,3.50
2018-09-11T06:20:32.801Z,3.40
2018-09-11T06:21:32.825Z,3.00
2018-09-11T06:22:32.856Z,3.40
2018-09-11T06:23:32.885Z,3.40
2018-09-11T06:24:32.910Z,3.20
2018-09-11T06:25:32.941Z,3.60
2018-09-11T06:26:32.974Z,3.50
2018-09-11T06:27:33.008Z,3.60
2018-09-11T06:28:33.031Z,3.40
2018-09-11T06:29:33.061Z,3.40
2018-09-11T06:30:33.088Z,3.70
2018-09-11T06:31:33.117Z,3.70
2018-09-11T06:32:33.145Z,3.30
2018-09-11T06:33:33.177Z,3.60
2018-09-11T06:34:33.216Z,3.60
2018-09-11T06:35:33.309Z,3.10
2018-09-11T06:36:33.261Z,3.60
2018-09-11T06:37:33.296Z,3.20
2018-09-11T06:38:33.318Z,3.70
2018-09-11T06:39:33.363Z,3.30
2018-09-11T06:40:33.387Z,3.10
2018-09-11T06:41:33.414Z,3.20
2018-09-11T06:42:33.437Z,3.10
2018-09-11T06:43:33.471Z,3.30
2018-09-11T06:44:33.559Z,3.60
2018-09-11T06:45:33.526Z,3.30
2018-09-11T06:46:33.557Z,3.50
2018-09-11T06:47:33.577Z,3.40
2018-09-11T06:48:33.608Z,3.50
2018-09-11T06:49:33.638Z,3.40
2018-09-11T06:50:33.673Z,3.60
2018-09-11T06:51:33.705Z,3.40
2018-09-11T06:52:33.735Z,3.50
2018-09-11T06:53:33.760Z,3.40
2018-09-11T06:54:33.815Z,3.10
2018-09-11T06:55:33.818Z,3.00
2018-09-11T06:56:33.847Z,2.80
2018-09-11T06:57:33.872Z,3.40
2018-09-11T06:58:33.907Z,2.80
2018-09-11T06:59:33.937Z,3.10
2018-09-11T07:00:33.973Z,3.10
2018-09-11T07:01:33.991Z,3.10
2018-09-11T07:02:34.023Z,3.00
2018-09-11T07:03:34.052Z,3.10
2018-09-11T07:04:34.084Z,3.00
2018-09-11T07:05:34.113Z,3.00
2018-09-11T07:06:34.138Z,3.00
2018-09-11T07:07:34.174Z,2.90
2018-09-11T07:08:34.212Z,2.80
2018-09-11T07:09:34.225Z,2.70
2018-09-11T07:10:34.257Z,3.00
2018-09-11T07:11:34.287Z,2.80
2018-09-11T07:12:34.311Z,2.90
2018-09-11T07:13:34.348Z,2.90
2018-09-11T07:14:34.423Z,3.10
2018-09-11T07:15:34.421Z,2.70
2018-09-11T07:16:34.437Z,3.40
2018-09-11T07:17:34.466Z,2.80
2018-09-11T07:18:34.494Z,3.00
2018-09-11T07:19:34.535Z,3.00
2018-09-11T07:20:34.557Z,3.00
2018-09-11T07:21:34.579Z,3.30
2018-09-11T07:22:34.614Z,3.00
2018-09-11T07:23:34.650Z,2.80
2018-09-11T07:24:34.678Z,2.70
2018-09-11T07:25:34.707Z,2.80
2018-09-11T07:26:34.731Z,2.90
2018-09-11T07:27:34.757Z,3.10
2018-09-11T07:28:34.792Z,2.70
2018-09-11T07:29:34.817Z,3.00
2018-09-11T07:30:34.856Z,2.90
2018-09-11T07:31:34.877Z,2.60
2018-09-11T07:32:35.119Z,2.90
2018-09-11T07:33:34.950Z,2.80
2018-09-11T07:34:34.969Z,2.50
2018-09-11T07:35:35.005Z,2.80
2018-09-11T07:36:35.044Z,2.80
2018-09-11T07:37:35.059Z,2.90
2018-09-11T07:38:35.089Z,2.80
2018-09-11T07:39:35.123Z,2.70
2018-09-11T07:40:35.155Z,2.60
2018-09-11T07:41:35.187Z,2.60
2018-09-11T07:42:35.212Z,2.50
2018-09-11T07:43:35.248Z,2.70
2018-09-11T07:44:35.280Z,2.70
2018-09-11T07:45:35.322Z,2.70
2018-09-11T07:46:35.343Z,2.70
2018-09-11T07:47:35.374Z,2.60
2018-09-11T07:48:35.399Z,3.00
2018-09-11T07:49:35.441Z,2.70
2018-09-11T07:50:35.466Z,2.20
2018-09-11T07:51:35.492Z,2.60
2018-09-11T07:52:35.608Z,2.70
2018-09-11T07:53:35.563Z,3.00
2018-09-11T07:54:35.592Z,2.80
2018-09-11T07:55:35.623Z,2.70
2018-09-11T07:56:35.658Z,2.70
2018-09-11T07:57:35.714Z,2.50
2018-09-11T07:58:35.712Z,2.70
2018-09-11T07:59:35.748Z,2.70
2018-09-11T08:00:35.786Z,2.70
2018-09-11T08:01:35.815Z,2.40
2018-09-11T08:02:35.848Z,2.60
2018-09-11T08:03:35.879Z,2.60
2018-09-11T08:04:35.921Z,2.70
2018-09-11T08:05:35.949Z,2.70
2018-09-11T08:06:35.988Z,2.60
2018-09-11T08:07:36.022Z,2.70
2018-09-11T08:08:36.048Z,2.50
2018-09-11T08:09:36.145Z,2.60
2018-09-11T08:10:36.115Z,2.60
2018-09-11T08:11:36.155Z,2.50
2018-09-11T08:12:36.187Z,2.60
2018-09-11T08:13:36.222Z,2.90
2018-09-11T08:14:36.251Z,2.60
2018-09-11T08:15:36.283Z,2.70
2018-09-11T08:16:36.312Z,2.50
2018-09-11T08:17:36.341Z,2.40
2018-09-11T08:18:36.384Z,2.60
2018-09-11T08:19:36.472Z,2.60
2018-09-11T08:20:36.453Z,2.70
2018-09-11T08:21:36.485Z,3.00
2018-09-11T08:22:36.530Z,2.30
2018-09-11T08:23:36.565Z,2.30
2018-09-11T08:24:36.594Z,2.30
2018-09-11T08:25:36.628Z,2.00
2018-09-11T08:26:36.664Z,2.10
2018-09-11T08:27:36.703Z,2.30
2018-09-11T08:28:36.729Z,2.10
2018-09-11T08:29:36.765Z,2.50
2018-09-11T08:30:36.800Z,2.30
2018-09-11T08:31:36.838Z,2.20
2018-09-11T08:32:36.871Z,2.40
2018-09-11T08:33:36.909Z,2.10
2018-09-11T08:34:36.951Z,2.20
2018-09-11T08:35:36.983Z,2.30
2018-09-11T08:36:37.015Z,2.40
2018-09-11T08:37:37.050Z,2.00
2018-09-11T08:38:37.089Z,2.20
2018-09-11T08:39:37.122Z,2.30
2018-09-11T08:40:37.158Z,2.30
2018-09-11T08:41:37.197Z,2.00
2018-09-11T08:42:37.228Z,2.10
2018-09-11T08:43:37.266Z,2.10
2018-09-11T08:44:37.302Z,2.00
2018-09-11T08:45:37.345Z,2.10
2018-09-11T08:46:37.405Z,1.90
2018-09-11T08:47:37.418Z,2.00
2018-09-11T08:48:37.447Z,2.20
2018-09-11T08:49:37.486Z,2.10
2018-09-11T08:50:37.524Z,2.10
2018-09-11T08:51:37.555Z,2.10
2018-09-11T08:52:37.733Z,2.00
2018-09-11T08:53:37.645Z,1.90
2018-09-11T08:54:37.668Z,2.10
2018-09-11T08:55:37.705Z,2.00
2018-09-11T08:56:37.743Z,1.80
2018-09-11T08:57:37.774Z,2.30
2018-09-11T08:58:37.869Z,1.70
2018-09-11T08:59:37.851Z,2.10
2018-09-11T09:00:37.890Z,2.00
2018-09-11T09:01:37.925Z,1.90
2018-09-11T09:02:37.963Z,1.70
2018-09-11T09:03:37.996Z,2.00
2018-09-11T09:04:38.034Z,1.90
2018-09-11T09:05:38.072Z,2.20
2018-09-11T09:06:38.108Z,2.10
2018-09-11T09:07:38.142Z,2.00
2018-09-11T09:08:38.236Z,1.90
2018-09-11T09:09:38.219Z,2.10
2018-09-11T09:10:38.254Z,2.00
2018-09-11T09:11:38.292Z,2.10
2018-09-11T09:12:38.330Z,2.10
2018-09-11T09:13:38.367Z,2.20
2018-09-11T09:14:38.394Z,1.90
2018-09-11T09:15:38.454Z,1.90
2018-09-11T09:16:38.480Z,2.00
2018-09-11T09:17:38.513Z,2.20
2018-09-11T09:18:38.558Z,2.40
2018-09-11T09:19:38.591Z,2.30
2018-09-11T09:20:38.626Z,2.10
2018-09-11T09:21:38.662Z,2.20
2018-09-11T09:22:38.703Z,2.00
2018-09-11T09:23:38.738Z,2.10
2018-09-11T09:24:38.777Z,2.20
2018-09-11T09:25:38.812Z,2.30
2018-09-11T09:26:38.850Z,2.00
2018-09-11T09:27:38.945Z,1.90
2018-09-11T09:28:38.927Z,2.10
2018-09-11T09:29:38.966Z,2.10
2018-09-11T09:30:39.001Z,2.10
2018-09-11T09:31:39.042Z,2.10
2018-09-11T09:32:39.075Z,2.50
2018-09-11T09:33:39.113Z,2.10
2018-09-11T09:34:39.149Z,2.20
2018-09-11T09:35:39.188Z,2.00
2018-09-11T09:36:39.298Z,2.00
2018-09-11T09:37:39.264Z,2.10
2018-09-11T09:38:39.299Z,2.20
2018-09-11T09:39:39.342Z,2.50
2018-09-11T09:40:39.376Z,2.20
2018-09-11T09:41:39.415Z,2.40
2018-09-11T09:42:39.450Z,2.10
2018-09-11T09:43:39.489Z,2.10
2018-09-11T09:44:39.522Z,2.40
2018-09-11T09:45:39.571Z,2.60
2018-09-11T09:46:39.610Z,2.40
2018-09-11T09:47:39.641Z,2.70
2018-09-11T09:48:39.679Z,2.20
2018-09-11T09:49:39.718Z,2.40
2018-09-11T09:50:39.784Z,2.10
2018-09-11T09:51:39.787Z,2.20
2018-09-11T09:52:39.828Z,2.30
2018-09-11T09:53:39.870Z,2.30
2018-09-11T09:54:39.908Z,2.10
2018-09-11T09:55:39.948Z,2.40
2018-09-11T09:56:39.984Z,2.20
2018-09-11T09:57:40.019Z,2.50
2018-09-11T09:58:40.052Z,2.30
2018-09-11T09:59:40.100Z,2.30
2018-09-11T10:00:40.136Z,2.30
2018-09-11T10:01:40.171Z,2.30
2018-09-11T10:02:40.222Z,2.70
2018-09-11T10:03:40.261Z,2.30
2018-09-11T10:04:40.314Z,2.50
2018-09-11T10:05:40.337Z,2.30
2018-09-11T10:06:40.370Z,2.30
2018-09-11T10:07:40.408Z,2.40
2018-09-11T10:08:40.452Z,2.20
2018-09-11T10:09:40.484Z,2.50
2018-09-11T10:10:40.526Z,2.30
2018-09-11T10:11:40.615Z,2.30
2018-09-11T10:12:40.603Z,2.30
2018-09-11T10:13:40.638Z,2.30
2018-09-11T10:14:40.680Z,2.60
2018-09-11T10:15:40.721Z,2.30
2018-09-11T10:16:40.755Z,2.60
2018-09-11T10:17:40.853Z,2.30
2018-09-11T10:18:40.851Z,2.30
2018-09-11T10:19:40.887Z,2.50
2018-09-11T10:20:40.915Z,2.20
2018-09-11T10:21:40.955Z,2.30
2018-09-11T10:22:41.000Z,2.40
2018-09-11T10:23:41.032Z,2.20
2018-09-11T10:24:41.074Z,2.30
2018-09-11T10:25:41.109Z,2.60
2018-09-11T10:26:41.150Z,2.20
2018-09-11T10:27:41.281Z,2.40
2018-09-11T10:28:41.224Z,2.60
2018-09-11T10:29:41.269Z,2.30
2018-09-11T10:30:41.314Z,2.60
2018-09-11T10:31:41.346Z,2.20
2018-09-11T10:32:41.382Z,2.40
2018-09-11T10:33:41.451Z,2.50
2018-09-11T10:34:41.465Z,2.40
2018-09-11T10:35:41.510Z,2.20
2018-09-11T10:36:41.539Z,2.30
2018-09-11T10:37:41.580Z,2.30
2018-09-11T10:38:41.623Z,2.40
2018-09-11T10:39:41.661Z,2.40
2018-09-11T10:40:41.733Z,2.50
2018-09-11T10:41:41.741Z,2.40
2018-09-11T10:42:41.780Z,2.40
2018-09-11T10:43:41.823Z,2.50
2018-09-11T10:44:41.863Z,2.70
2018-09-11T10:45:41.899Z,2.30
2018-09-11T10:46:41.932Z,2.40
2018-09-11T10:47:41.987Z,2.40
2018-09-11T10:48:42.044Z,2.30
2018-09-11T10:49:42.061Z,2.50
2018-09-11T10:50:42.099Z,2.50
2018-09-11T10:51:42.173Z,2.50
2018-09-11T10:52:42.174Z,2.30
2018-09-11T10:53:42.219Z,2.40
2018-09-11T10:54:42.254Z,2.30
2018-09-11T10:55:42.299Z,2.40
2018-09-11T10:56:42.336Z,2.70
2018-09-11T10:57:42.381Z,2.20
2018-09-11T10:58:42.419Z,2.60
2018-09-11T10:59:42.461Z,2.30
2018-09-11T11:00:42.497Z,2.50
2018-09-11T11:01:42.543Z,2.80
2018-09-11T11:02:42.581Z,2.20
2018-09-11T11:03:42.608Z,2.40
2018-09-11T11:04:42.665Z,2.50
2018-09-11T11:05:42.703Z,2.40
2018-09-11T11:06:42.738Z,2.40
2018-09-11T11:07:42.779Z,2.30
2018-09-11T11:08:42.815Z,2.40
2018-09-11T11:09:42.861Z,2.60
2018-09-11T11:10:42.895Z,2.40
2018-09-11T11:11:42.939Z,2.60
2018-09-11T11:12:42.985Z,2.50
2018-09-11T11:13:43.020Z,2.50
2018-09-11T11:14:43.052Z,2.60
2018-09-11T11:15:43.102Z,2.60
2018-09-11T11:16:43.136Z,2.60
2018-09-11T11:17:43.185Z,2.30
2018-09-11T11:18:43.220Z,2.70
2018-09-11T11:19:43.262Z,2.60
2018-09-11T11:21:43.338Z,2.40
2018-09-11T11:22:43.375Z,2.60
2018-09-11T11:23:43.423Z,2.30
2018-09-11T11:24:43.469Z,2.40
2018-09-11T11:25:43.494Z,2.60
2018-09-11T11:26:43.553Z,3.00
2018-09-11T11:27:43.588Z,2.40
2018-09-11T11:28:43.613Z,2.50
2018-09-11T11:29:43.660Z,2.50
2018-09-11T11:30:43.702Z,2.40
2018-09-11T11:31:43.741Z,2.70
2018-09-11T11:32:43.786Z,2.50
2018-09-11T11:33:43.824Z,2.40
2018-09-11T11:34:43.856Z,2.90
2018-09-11T11:35:43.901Z,2.40
2018-09-11T11:36:44.149Z,2.50
2018-09-11T11:37:43.985Z,2.40
2018-09-11T11:38:44.030Z,2.60
2018-09-11T11:39:44.068Z,2.60
2018-09-11T11:40:44.114Z,2.50
2018-09-11T11:41:44.151Z,2.50
2018-09-11T11:42:44.216Z,2.70
2018-09-11T11:43:44.238Z,2.40
2018-09-11T11:44:44.289Z,2.70
2018-09-11T11:45:44.313Z,2.70
2018-09-11T11:46:44.357Z,2.80
2018-09-11T11:47:44.394Z,2.50
2018-09-11T11:48:44.432Z,2.50
2018-09-11T11:49:44.474Z,2.40
2018-09-11T11:50:44.519Z,2.60
2018-09-11T11:51:44.563Z,2.60
2018-09-11T11:52:44.602Z,2.50
2018-09-11T11:53:44.638Z,2.60
2018-09-11T11:54:44.683Z,2.50
2018-09-11T11:55:44.718Z,2.70
2018-09-11T11:56:44.756Z,2.90
2018-09-11T11:57:44.800Z,2.70
2018-09-11T11:58:44.852Z,2.90
2018-09-11T11:59:44.880Z,2.70
2018-09-11T12:00:44.927Z,2.50
2018-09-11T12:01:44.967Z,2.50
2018-09-11T12:02:45.004Z,2.50
2018-09-11T12:03:45.042Z,2.90
2018-09-11T12:04:45.084Z,2.60
2018-09-11T12:05:45.125Z,2.60
2018-09-11T12:06:45.164Z,2.40
2018-09-11T12:07:45.238Z,2.60
2018-09-11T12:08:45.244Z,2.50
2018-09-11T12:09:45.285Z,2.60
2018-09-11T12:10:45.339Z,2.40
2018-09-11T12:11:45.374Z,2.30
2018-09-11T12:12:45.406Z,2.30
2018-09-11T12:13:45.445Z,2.50
2018-09-11T12:14:45.490Z,2.30
2018-09-11T12:15:45.527Z,2.60
2018-09-11T12:16:45.607Z,2.60
2018-09-11T12:17:45.611Z,3.20
2018-09-11T12:18:45.652Z,2.50
2018-09-11T12:19:45.687Z,2.70
2018-09-11T12:20:45.727Z,2.60
2018-09-11T12:21:45.772Z,2.60
2018-09-11T12:22:45.810Z,2.90
2018-09-11T12:23:45.852Z,2.70
2018-09-11T12:24:45.894Z,2.80
2018-09-11T12:25:45.932Z,2.70
2018-09-11T12:26:45.986Z,2.80
2018-09-11T12:27:46.021Z,2.70
2018-09-11T12:28:46.048Z,2.90
2018-09-11T12:29:46.090Z,2.70
2018-09-11T12:30:46.132Z,2.60
2018-09-11T12:31:46.174Z,2.90
2018-09-11T12:32:46.212Z,2.70
2018-09-11T12:33:46.250Z,2.60
2018-09-11T12:34:46.291Z,2.90
2018-09-11T12:35:46.331Z,2.60
2018-09-11T12:36:46.369Z,2.60
2018-09-11T12:37:46.407Z,2.80
2018-09-11T12:38:46.449Z,2.50
2018-09-11T12:39:46.484Z,2.50
2018-09-11T12:40:46.523Z,2.60
2018-09-11T12:41:46.566Z,2.70
2018-09-11T12:42:46.600Z,2.80
2018-09-11T12:43:46.648Z,2.60
2018-09-11T12:44:46.681Z,2.60
2018-09-11T12:45:46.744Z,2.80
2018-09-11T12:46:46.873Z,2.90
2018-09-11T12:47:47.190Z,3.10
2018-09-11T12:48:46.942Z,3.10
2018-09-11T12:49:46.879Z,2.50
2018-09-11T12:50:46.925Z,2.70
2018-09-11T12:51:46.965Z,2.60
2018-09-11T12:52:46.994Z,2.70
2018-09-11T12:53:47.040Z,2.80
2018-09-11T12:54:47.074Z,2.70
2018-09-11T12:55:47.115Z,2.70
2018-09-11T12:56:47.147Z,2.90
2018-09-11T12:57:47.192Z,2.70
2018-09-11T12:58:47.228Z,2.70
2018-09-11T12:59:47.266Z,2.80
2018-09-11T13:00:47.304Z,2.80
2018-09-11T13:01:47.347Z,2.80
2018-09-11T13:02:47.385Z,2.90
2018-09-11T13:03:47.429Z,2.70
2018-09-11T13:04:47.459Z,2.60
2018-09-11T13:05:47.504Z,2.50
2018-09-11T13:06:47.540Z,2.60
2018-09-11T13:07:47.577Z,2.70
2018-09-11T13:08:47.610Z,2.90
2018-09-11T13:09:47.657Z,2.60
2018-09-11T13:10:47.780Z,2.90
2018-09-11T13:11:47.737Z,2.80
2018-09-11T13:12:47.779Z,2.80
2018-09-11T13:13:47.811Z,2.80
2018-09-11T13:14:47.842Z,2.60
2018-09-11T13:15:47.890Z,2.50
2018-09-11T13:16:47.923Z,2.80
2018-09-11T13:17:47.960Z,2.80
2018-09-11T13:18:47.995Z,2.90
2018-09-11T13:19:48.040Z,2.60
2018-09-11T13:20:48.078Z,2.50
2018-09-11T13:21:48.117Z,2.70
2018-09-11T13:22:48.154Z,2.70
2018-09-11T13:23:48.192Z,2.70